Portada
METAR-TAF:

METAR-TAF

Aeroports :

Laurel, Mississipí, Estats Units d'Amèrica

latitud: 31-40-23N, longitud: 089-10-22W, altitud: 73 m

Observació

L'informe es va fer fa 21 minuts, a les 16:55 UTC
Vent 5 kt del Est/Sud-Est
Temperatura 28°C
Humitat 55%
Pressió 1021 hPa
Visibilitat: 16.1 km
Cel clar

METAR: KLUL 011655Z AUTO 12005KT 10SM CLR 28/18 A3015 RMK A02 T02790176

Hora: 12:16 (17:16 UTC)


TAF: manca

Observacions i pronòstics meteorològics de més de 4000 aeroports (METAR i TAF).

Les estacions disponibles són els punts grocs i vermells al mapa.

Posi el ratolí al punt desitjat per veure el nom de l'estació.

Feu clic per veure les observacions i els pronòstics meteorològics.

Per canviar el mapa: feu clic els botons verds amb una creu de color negre per apropar; al botó verd amb un guió per allunyar la imatge; o en les fletxes verdes per a mapes adjacents.


METAR-TAF: